sensor_id;sensor_type;location;lat;lon;timestamp;pressure;altitude;pressure_sealevel;temperature;humidity
25658;BME280;13517;59.320;18.042;2022-07-15T00:01:41;99875.53;;;12.75;100.00
25658;BME280;13517;59.320;18.042;2022-07-15T00:04:06;99897.06;;;12.76;100.00
25658;BME280;13517;59.320;18.042;2022-07-15T00:06:31;99882.94;;;12.73;100.00
25658;BME280;13517;59.320;18.042;2022-07-15T00:08:56;99900.25;;;12.82;100.00
25658;BME280;13517;59.320;18.042;2022-07-15T00:11:22;99882.69;;;12.76;100.00
25658;BME280;13517;59.320;18.042;2022-07-15T00:13:47;99851.06;;;12.55;100.00
25658;BME280;13517;59.320;18.042;2022-07-15T00:16:12;99896.19;;;12.66;100.00
25658;BME280;13517;59.320;18.042;2022-07-15T00:18:40;99901.72;;;12.64;100.00
25658;BME280;13517;59.320;18.042;2022-07-15T00:21:05;99893.66;;;12.53;100.00
25658;BME280;13517;59.320;18.042;2022-07-15T00:23:30;99907.06;;;12.55;100.00
25658;BME280;13517;59.320;18.042;2022-07-15T00:25:56;99898.06;;;12.54;100.00
25658;BME280;13517;59.320;18.042;2022-07-15T00:28:21;99897.47;;;12.50;100.00
25658;BME280;13517;59.320;18.042;2022-07-15T00:30:46;99905.09;;;12.57;100.00
25658;BME280;13517;59.320;18.042;2022-07-15T00:33:11;99887.22;;;12.44;100.00
25658;BME280;13517;59.320;18.042;2022-07-15T00:35:38;99907.47;;;12.50;100.00
25658;BME280;13517;59.320;18.042;2022-07-15T00:38:04;99915.47;;;12.51;100.00
25658;BME280;13517;59.320;18.042;2022-07-15T00:40:39;99913.41;;;12.44;100.00
25658;BME280;13517;59.320;18.042;2022-07-15T00:43:04;99920.69;;;12.43;100.00
25658;BME280;13517;59.320;18.042;2022-07-15T00:45:30;99897.22;;;12.32;100.00
25658;BME280;13517;59.320;18.042;2022-07-15T00:47:57;99925.78;;;12.36;100.00
25658;BME280;13517;59.320;18.042;2022-07-15T00:50:25;99914.00;;;12.26;100.00
25658;BME280;13517;59.320;18.042;2022-07-15T00:52:55;99913.75;;;12.29;100.00
25658;BME280;13517;59.320;18.042;2022-07-15T00:55:24;99921.41;;;12.24;100.00
25658;BME280;13517;59.320;18.042;2022-07-15T00:57:52;99922.66;;;12.20;100.00
25658;BME280;13517;59.320;18.042;2022-07-15T01:00:19;99913.34;;;12.12;100.00
25658;BME280;13517;59.320;18.042;2022-07-15T01:02:45;99909.16;;;12.08;100.00
25658;BME280;13517;59.320;18.042;2022-07-15T01:05:16;99896.50;;;11.97;100.00
25658;BME280;13517;59.320;18.042;2022-07-15T01:07:41;99912.88;;;12.07;100.00
25658;BME280;13517;59.320;18.042;2022-07-15T01:10:07;99899.81;;;12.01;100.00
25658;BME280;13517;59.320;18.042;2022-07-15T01:12:34;99911.88;;;12.08;100.00
25658;BME280;13517;59.320;18.042;2022-07-15T01:15:02;99901.03;;;11.97;100.00
25658;BME280;13517;59.320;18.042;2022-07-15T01:17:28;99922.69;;;12.08;100.00
25658;BME280;13517;59.320;18.042;2022-07-15T01:19:53;99911.50;;;12.02;100.00
25658;BME280;13517;59.320;18.042;2022-07-15T01:22:18;99926.00;;;12.01;100.00
25658;BME280;13517;59.320;18.042;2022-07-15T01:24:43;99925.16;;;12.00;100.00
25658;BME280;13517;59.320;18.042;2022-07-15T01:27:09;99904.03;;;11.94;100.00
25658;BME280;13517;59.320;18.042;2022-07-15T01:29:34;99921.22;;;12.04;100.00
25658;BME280;13517;59.320;18.042;2022-07-15T01:31:59;99903.94;;;11.84;100.00
25658;BME280;13517;59.320;18.042;2022-07-15T01:34:25;99906.13;;;11.90;100.00
25658;BME280;13517;59.320;18.042;2022-07-15T01:36:50;99914.63;;;11.85;100.00
25658;BME280;13517;59.320;18.042;2022-07-15T01:39:15;99925.34;;;11.87;100.00
25658;BME280;13517;59.320;18.042;2022-07-15T01:41:40;99923.47;;;11.88;100.00
25658;BME280;13517;59.320;18.042;2022-07-15T01:44:06;99943.13;;;11.90;100.00
25658;BME280;13517;59.320;18.042;2022-07-15T01:46:31;99926.97;;;11.78;100.00
25658;BME280;13517;59.320;18.042;2022-07-15T01:48:56;99937.00;;;11.88;100.00
25658;BME280;13517;59.320;18.042;2022-07-15T01:51:40;99928.91;;;11.76;100.00
25658;BME280;13517;59.320;18.042;2022-07-15T01:54:06;99936.28;;;11.85;100.00
25658;BME280;13517;59.320;18.042;2022-07-15T01:56:31;99913.22;;;11.70;100.00
25658;BME280;13517;59.320;18.042;2022-07-15T01:58:56;99932.59;;;11.75;100.00
25658;BME280;13517;59.320;18.042;2022-07-15T02:01:22;99933.38;;;11.77;100.00
25658;BME280;13517;59.320;18.042;2022-07-15T02:03:47;99899.22;;;11.53;100.00
25658;BME280;13517;59.320;18.042;2022-07-15T02:06:12;99926.84;;;11.68;100.00
25658;BME280;13517;59.320;18.042;2022-07-15T02:08:38;99940.13;;;11.71;100.00
25658;BME280;13517;59.320;18.042;2022-07-15T02:11:04;99916.19;;;11.55;100.00
25658;BME280;13517;59.320;18.042;2022-07-15T02:13:29;99909.56;;;11.48;100.00
25658;BME280;13517;59.320;18.042;2022-07-15T02:15:55;99924.78;;;11.61;100.00
25658;BME280;13517;59.320;18.042;2022-07-15T02:18:20;99940.50;;;11.67;100.00
25658;BME280;13517;59.320;18.042;2022-07-15T02:20:46;99922.22;;;11.59;100.00
25658;BME280;13517;59.320;18.042;2022-07-15T02:23:11;99947.00;;;11.76;100.00
25658;BME280;13517;59.320;18.042;2022-07-15T02:25:37;99945.03;;;11.78;100.00
25658;BME280;13517;59.320;18.042;2022-07-15T02:28:04;99930.41;;;11.69;100.00
25658;BME280;13517;59.320;18.042;2022-07-15T02:30:32;99944.91;;;11.79;100.00
25658;BME280;13517;59.320;18.042;2022-07-15T02:32:59;99921.31;;;11.70;100.00
25658;BME280;13517;59.320;18.042;2022-07-15T02:35:24;99903.34;;;11.69;100.00
25658;BME280;13517;59.320;18.042;2022-07-15T02:37:50;99949.53;;;11.89;100.00
25658;BME280;13517;59.320;18.042;2022-07-15T02:40:16;99944.41;;;11.85;100.00
25658;BME280;13517;59.320;18.042;2022-07-15T02:42:47;99916.03;;;11.68;100.00
25658;BME280;13517;59.320;18.042;2022-07-15T02:45:13;99949.22;;;11.82;100.00
25658;BME280;13517;59.320;18.042;2022-07-15T02:47:38;99941.22;;;11.80;100.00
25658;BME280;13517;59.320;18.042;2022-07-15T02:50:04;99939.00;;;11.74;100.00
25658;BME280;13517;59.320;18.042;2022-07-15T02:52:30;99952.53;;;11.74;100.00
25658;BME280;13517;59.320;18.042;2022-07-15T02:54:55;99954.53;;;11.72;100.00
25658;BME280;13517;59.320;18.042;2022-07-15T02:57:21;99956.34;;;11.83;100.00
25658;BME280;13517;59.320;18.042;2022-07-15T02:59:46;99950.06;;;11.82;100.00
25658;BME280;13517;59.320;18.042;2022-07-15T03:02:12;99949.53;;;11.89;100.00
25658;BME280;13517;59.320;18.042;2022-07-15T03:04:37;99947.34;;;11.82;100.00
25658;BME280;13517;59.320;18.042;2022-07-15T03:07:03;99939.88;;;11.75;100.00
25658;BME280;13517;59.320;18.042;2022-07-15T03:09:28;99956.06;;;11.86;100.00
25658;BME280;13517;59.320;18.042;2022-07-15T03:11:53;99962.34;;;11.87;100.00
25658;BME280;13517;59.320;18.042;2022-07-15T03:14:19;99948.84;;;11.75;100.00
25658;BME280;13517;59.320;18.042;2022-07-15T03:16:44;99960.63;;;11.85;100.00
25658;BME280;13517;59.320;18.042;2022-07-15T03:19:10;99946.50;;;11.82;100.00
25658;BME280;13517;59.320;18.042;2022-07-15T03:21:35;99941.81;;;11.84;100.00
25658;BME280;13517;59.320;18.042;2022-07-15T03:24:01;99966.28;;;11.94;99.12
25658;BME280;13517;59.320;18.042;2022-07-15T03:26:26;99952.16;;;11.79;98.16
25658;BME280;13517;59.320;18.042;2022-07-15T03:28:51;99945.75;;;11.80;98.35
25658;BME280;13517;59.320;18.042;2022-07-15T03:31:17;99944.91;;;11.79;98.17
25658;BME280;13517;59.320;18.042;2022-07-15T03:33:42;99952.31;;;11.77;97.54
25658;BME280;13517;59.320;18.042;2022-07-15T03:36:08;99976.81;;;11.97;97.46
25658;BME280;13517;59.320;18.042;2022-07-15T03:38:33;99986.94;;;11.95;97.14
25658;BME280;13517;59.320;18.042;2022-07-15T03:40:58;99987.31;;;12.02;97.31
25658;BME280;13517;59.320;18.042;2022-07-15T03:43:24;99979.06;;;12.03;96.39
25658;BME280;13517;59.320;18.042;2022-07-15T03:45:52;99983.13;;;12.09;96.36
25658;BME280;13517;59.320;18.042;2022-07-15T03:48:18;99977.09;;;12.05;96.75
25658;BME280;13517;59.320;18.042;2022-07-15T03:50:43;99986.88;;;12.18;96.18
25658;BME280;13517;59.320;18.042;2022-07-15T03:53:08;99975.63;;;12.12;95.75
25658;BME280;13517;59.320;18.042;2022-07-15T03:55:34;99997.19;;;12.35;95.67
25658;BME280;13517;59.320;18.042;2022-07-15T03:58:01;99986.84;;;12.41;93.41
25658;BME280;13517;59.320;18.042;2022-07-15T04:00:26;99980.88;;;12.47;93.49
25658;BME280;13517;59.320;18.042;2022-07-15T04:02:52;99973.88;;;12.44;93.89
25658;BME280;13517;59.320;18.042;2022-07-15T04:05:17;99995.16;;;12.49;93.17
25658;BME280;13517;59.320;18.042;2022-07-15T04:07:42;99984.75;;;12.33;91.05
25658;BME280;13517;59.320;18.042;2022-07-15T04:10:08;99961.97;;;12.35;90.40
25658;BME280;13517;59.320;18.042;2022-07-15T04:12:33;100004.03;;;12.39;88.57
25658;BME280;13517;59.320;18.042;2022-07-15T04:14:59;99983.88;;;12.32;88.69
25658;BME280;13517;59.320;18.042;2022-07-15T04:17:24;99995.88;;;12.51;88.17
25658;BME280;13517;59.320;18.042;2022-07-15T04:19:49;99996.47;;;12.55;87.02
25658;BME280;13517;59.320;18.042;2022-07-15T04:22:14;99982.34;;;12.51;86.04
25658;BME280;13517;59.320;18.042;2022-07-15T04:24:40;99995.56;;;12.65;85.78
25658;BME280;13517;59.320;18.042;2022-07-15T04:27:05;99996.22;;;12.79;85.81
25658;BME280;13517;59.320;18.042;2022-07-15T04:29:30;99991.41;;;12.83;84.24
25658;BME280;13517;59.320;18.042;2022-07-15T04:31:56;99988.56;;;12.84;84.05
25658;BME280;13517;59.320;18.042;2022-07-15T04:34:21;99991.28;;;12.84;82.69
25658;BME280;13517;59.320;18.042;2022-07-15T04:36:46;99984.78;;;12.75;83.19
25658;BME280;13517;59.320;18.042;2022-07-15T04:39:12;100004.56;;;12.87;82.66
25658;BME280;13517;59.320;18.042;2022-07-15T04:41:37;99994.38;;;13.01;81.35
25658;BME280;13517;59.320;18.042;2022-07-15T04:44:02;100001.63;;;13.00;80.56
25658;BME280;13517;59.320;18.042;2022-07-15T04:46:28;100004.31;;;12.90;80.39
25658;BME280;13517;59.320;18.042;2022-07-15T04:48:53;99997.72;;;12.93;80.32
25658;BME280;13517;59.320;18.042;2022-07-15T04:51:37;100002.91;;;12.96;80.21
25658;BME280;13517;59.320;18.042;2022-07-15T04:54:02;99996.09;;;13.02;80.09
25658;BME280;13517;59.320;18.042;2022-07-15T04:56:27;99978.16;;;12.89;79.12
25658;BME280;13517;59.320;18.042;2022-07-15T04:58:52;99995.09;;;13.03;78.82
25658;BME280;13517;59.320;18.042;2022-07-15T05:01:19;99993.31;;;13.13;78.20
25658;BME280;13517;59.320;18.042;2022-07-15T05:03:44;99987.88;;;13.13;77.98
25658;BME280;13517;59.320;18.042;2022-07-15T05:06:09;100001.34;;;13.25;77.09
25658;BME280;13517;59.320;18.042;2022-07-15T05:08:35;100005.00;;;13.14;77.05
25658;BME280;13517;59.320;18.042;2022-07-15T05:11:00;99991.72;;;12.89;77.50
25658;BME280;13517;59.320;18.042;2022-07-15T05:13:25;99978.25;;;12.78;77.50
25658;BME280;13517;59.320;18.042;2022-07-15T05:15:51;99982.56;;;12.80;79.02
25658;BME280;13517;59.320;18.042;2022-07-15T05:18:16;100000.84;;;12.88;77.81
25658;BME280;13517;59.320;18.042;2022-07-15T05:20:41;100003.84;;;12.85;77.79
25658;BME280;13517;59.320;18.042;2022-07-15T05:23:07;100003.38;;;12.80;77.36
25658;BME280;13517;59.320;18.042;2022-07-15T05:25:32;100015.19;;;12.79;77.25
25658;BME280;13517;59.320;18.042;2022-07-15T05:27:57;99979.09;;;12.57;76.44
25658;BME280;13517;59.320;18.042;2022-07-15T05:30:23;100019.91;;;12.77;75.83
25658;BME280;13517;59.320;18.042;2022-07-15T05:32:48;100008.06;;;12.78;75.12
25658;BME280;13517;59.320;18.042;2022-07-15T05:35:14;99981.53;;;12.60;75.68
25658;BME280;13517;59.320;18.042;2022-07-15T05:37:40;99986.91;;;12.72;74.98
25658;BME280;13517;59.320;18.042;2022-07-15T05:40:07;100008.72;;;12.70;73.72
25658;BME280;13517;59.320;18.042;2022-07-15T05:42:33;100015.91;;;12.81;73.79
25658;BME280;13517;59.320;18.042;2022-07-15T05:44:58;100017.63;;;12.82;73.27
25658;BME280;13517;59.320;18.042;2022-07-15T05:47:24;100013.09;;;12.83;73.79
25658;BME280;13517;59.320;18.042;2022-07-15T05:49:49;100034.84;;;12.92;74.48
25658;BME280;13517;59.320;18.042;2022-07-15T05:52:14;100023.00;;;12.93;73.17
25658;BME280;13517;59.320;18.042;2022-07-15T05:54:40;100021.34;;;13.02;73.53
25658;BME280;13517;59.320;18.042;2022-07-15T05:57:05;100000.78;;;13.00;72.64
25658;BME280;13517;59.320;18.042;2022-07-15T05:59:30;99995.19;;;12.91;73.43
25658;BME280;13517;59.320;18.042;2022-07-15T06:01:56;100017.91;;;13.00;72.75
25658;BME280;13517;59.320;18.042;2022-07-15T06:04:22;100032.44;;;13.20;73.34
25658;BME280;13517;59.320;18.042;2022-07-15T06:06:47;100014.94;;;13.03;72.59
25658;BME280;13517;59.320;18.042;2022-07-15T06:09:12;100024.97;;;13.13;71.92
25658;BME280;13517;59.320;18.042;2022-07-15T06:11:38;100036.69;;;13.13;70.81
25658;BME280;13517;59.320;18.042;2022-07-15T06:14:03;100023.00;;;13.15;70.41
25658;BME280;13517;59.320;18.042;2022-07-15T06:16:30;100044.84;;;13.44;69.71
25658;BME280;13517;59.320;18.042;2022-07-15T06:18:55;100025.97;;;13.33;68.41
25658;BME280;13517;59.320;18.042;2022-07-15T06:21:20;100032.81;;;13.37;68.24
25658;BME280;13517;59.320;18.042;2022-07-15T06:23:46;100038.78;;;13.52;68.03
25658;BME280;13517;59.320;18.042;2022-07-15T06:26:11;100026.94;;;13.53;68.30
25658;BME280;13517;59.320;18.042;2022-07-15T06:28:36;100027.38;;;13.58;67.89
25658;BME280;13517;59.320;18.042;2022-07-15T06:31:02;100027.94;;;13.52;67.01
25658;BME280;13517;59.320;18.042;2022-07-15T06:33:27;100037.38;;;13.58;67.09
25658;BME280;13517;59.320;18.042;2022-07-15T06:35:52;100049.75;;;13.82;67.39
25658;BME280;13517;59.320;18.042;2022-07-15T06:38:20;100037.06;;;13.92;66.83
25658;BME280;13517;59.320;18.042;2022-07-15T06:40:45;100030.75;;;13.82;66.64
25658;BME280;13517;59.320;18.042;2022-07-15T06:43:10;100054.03;;;13.84;67.88
25658;BME280;13517;59.320;18.042;2022-07-15T06:45:36;100034.44;;;13.81;67.88
25658;BME280;13517;59.320;18.042;2022-07-15T06:48:02;100032.16;;;13.76;67.43
25658;BME280;13517;59.320;18.042;2022-07-15T06:50:27;100057.06;;;13.91;67.37
25658;BME280;13517;59.320;18.042;2022-07-15T06:52:53;100044.50;;;13.90;67.65
25658;BME280;13517;59.320;18.042;2022-07-15T06:55:18;100039.91;;;13.91;68.20
25658;BME280;13517;59.320;18.042;2022-07-15T06:57:43;100049.53;;;14.05;67.39
25658;BME280;13517;59.320;18.042;2022-07-15T07:00:09;100072.13;;;14.15;67.30
25658;BME280;13517;59.320;18.042;2022-07-15T07:02:36;100042.94;;;13.97;66.41
25658;BME280;13517;59.320;18.042;2022-07-15T07:05:03;100033.66;;;13.90;66.18
25658;BME280;13517;59.320;18.042;2022-07-15T07:07:29;100051.94;;;13.98;65.88
25658;BME280;13517;59.320;18.042;2022-07-15T07:09:54;100068.41;;;14.06;66.67
25658;BME280;13517;59.320;18.042;2022-07-15T07:12:20;100063.84;;;14.07;67.43
25658;BME280;13517;59.320;18.042;2022-07-15T07:14:45;100057.13;;;14.11;67.38
25658;BME280;13517;59.320;18.042;2022-07-15T07:17:10;100046.28;;;14.11;67.68
25658;BME280;13517;59.320;18.042;2022-07-15T07:19:36;100038.53;;;14.16;68.47
25658;BME280;13517;59.320;18.042;2022-07-15T07:22:01;100076.91;;;14.33;67.59
25658;BME280;13517;59.320;18.042;2022-07-15T07:24:26;100075.47;;;14.28;68.38
25658;BME280;13517;59.320;18.042;2022-07-15T07:26:52;100075.78;;;14.35;67.50
25658;BME280;13517;59.320;18.042;2022-07-15T07:29:17;100067.75;;;14.34;68.26
25658;BME280;13517;59.320;18.042;2022-07-15T07:31:50;100075.19;;;14.41;67.50
25658;BME280;13517;59.320;18.042;2022-07-15T07:34:16;100090.09;;;14.47;67.94
25658;BME280;13517;59.320;18.042;2022-07-15T07:36:42;100058.16;;;14.29;68.00
25658;BME280;13517;59.320;18.042;2022-07-15T07:39:08;100097.94;;;14.40;69.07
25658;BME280;13517;59.320;18.042;2022-07-15T07:41:33;100067.16;;;14.20;68.41
25658;BME280;13517;59.320;18.042;2022-07-15T07:43:58;100080.63;;;14.32;68.65
25658;BME280;13517;59.320;18.042;2022-07-15T07:46:24;100085.66;;;14.46;67.31
25658;BME280;13517;59.320;18.042;2022-07-15T07:48:49;100080.22;;;14.46;66.60
25658;BME280;13517;59.320;18.042;2022-07-15T07:51:16;100086.66;;;14.55;66.59
25658;BME280;13517;59.320;18.042;2022-07-15T07:53:42;100073.63;;;14.58;66.80
25658;BME280;13517;59.320;18.042;2022-07-15T07:56:07;100074.19;;;14.52;66.39
25658;BME280;13517;59.320;18.042;2022-07-15T07:58:33;100103.13;;;14.73;66.82
25658;BME280;13517;59.320;18.042;2022-07-15T08:00:59;100093.00;;;14.75;65.74
25658;BME280;13517;59.320;18.042;2022-07-15T08:03:24;100070.22;;;14.56;65.71
25658;BME280;13517;59.320;18.042;2022-07-15T08:05:50;100105.25;;;14.69;65.80
25658;BME280;13517;59.320;18.042;2022-07-15T08:08:17;100099.88;;;14.79;65.45
25658;BME280;13517;59.320;18.042;2022-07-15T08:10:46;100065.22;;;14.62;65.48
25658;BME280;13517;59.320;18.042;2022-07-15T08:13:12;100082.34;;;14.52;65.28
25658;BME280;13517;59.320;18.042;2022-07-15T08:15:38;100090.94;;;14.48;64.24
25658;BME280;13517;59.320;18.042;2022-07-15T08:18:04;100107.84;;;14.61;63.42
25658;BME280;13517;59.320;18.042;2022-07-15T08:20:29;100066.94;;;14.63;63.15
25658;BME280;13517;59.320;18.042;2022-07-15T08:22:55;100063.34;;;14.62;63.28
25658;BME280;13517;59.320;18.042;2022-07-15T08:25:28;100086.09;;;14.71;63.71
25658;BME280;13517;59.320;18.042;2022-07-15T08:27:53;100070.91;;;14.39;64.54
25658;BME280;13517;59.320;18.042;2022-07-15T08:30:20;100084.63;;;14.37;64.24
25658;BME280;13517;59.320;18.042;2022-07-15T08:32:45;100060.31;;;14.26;64.20
25658;BME280;13517;59.320;18.042;2022-07-15T08:35:10;100096.78;;;14.43;63.48
25658;BME280;13517;59.320;18.042;2022-07-15T08:37:36;100075.50;;;14.58;62.16
25658;BME280;13517;59.320;18.042;2022-07-15T08:40:03;100074.38;;;14.61;61.23
25658;BME280;13517;59.320;18.042;2022-07-15T08:42:29;100079.22;;;14.67;60.58
25658;BME280;13517;59.320;18.042;2022-07-15T08:44:54;100103.59;;;14.78;60.44
25658;BME280;13517;59.320;18.042;2022-07-15T08:47:22;100106.88;;;14.82;59.95
25658;BME280;13517;59.320;18.042;2022-07-15T08:49:54;100087.56;;;14.75;59.71
25658;BME280;13517;59.320;18.042;2022-07-15T08:52:22;100097.44;;;14.86;60.32
25658;BME280;13517;59.320;18.042;2022-07-15T08:54:48;100104.47;;;14.89;60.09
25658;BME280;13517;59.320;18.042;2022-07-15T08:57:14;100107.19;;;14.89;60.39
25658;BME280;13517;59.320;18.042;2022-07-15T08:59:39;100102.88;;;14.96;60.29
25658;BME280;13517;59.320;18.042;2022-07-15T09:02:04;100124.63;;;14.86;60.49
25658;BME280;13517;59.320;18.042;2022-07-15T09:04:30;100089.69;;;14.62;60.62
25658;BME280;13517;59.320;18.042;2022-07-15T09:07:00;100115.59;;;14.76;60.24
25658;BME280;13517;59.320;18.042;2022-07-15T09:09:34;100115.03;;;14.92;60.05
25658;BME280;13517;59.320;18.042;2022-07-15T09:12:05;100133.06;;;15.03;60.16
25658;BME280;13517;59.320;18.042;2022-07-15T09:14:32;100131.63;;;15.08;59.94
25658;BME280;13517;59.320;18.042;2022-07-15T09:19:56;100127.19;;;15.17;59.69
25658;BME280;13517;59.320;18.042;2022-07-15T09:22:22;100112.47;;;15.10;59.55
25658;BME280;13517;59.320;18.042;2022-07-15T09:25:01;100096.13;;;14.80;58.16
25658;BME280;13517;59.320;18.042;2022-07-15T09:27:32;100119.34;;;14.94;58.88
25658;BME280;13517;59.320;18.042;2022-07-15T09:33:11;100119.03;;;15.27;58.98
25658;BME280;13517;59.320;18.042;2022-07-15T09:38:31;100102.41;;;15.30;58.16
25658;BME280;13517;59.320;18.042;2022-07-15T09:40:57;100110.88;;;15.27;59.31
25658;BME280;13517;59.320;18.042;2022-07-15T09:43:22;100114.47;;;15.18;58.57
25658;BME280;13517;59.320;18.042;2022-07-15T09:45:56;100102.16;;;15.04;55.95
25658;BME280;13517;59.320;18.042;2022-07-15T09:48:21;100119.03;;;14.88;57.71
25658;BME280;13517;59.320;18.042;2022-07-15T09:50:46;100122.78;;;15.06;57.80
25658;BME280;13517;59.320;18.042;2022-07-15T09:53:13;100121.31;;;15.22;58.47
25658;BME280;13517;59.320;18.042;2022-07-15T09:55:42;100134.47;;;15.46;57.58
25658;BME280;13517;59.320;18.042;2022-07-15T09:58:08;100133.31;;;15.49;57.53
25658;BME280;13517;59.320;18.042;2022-07-15T10:00:37;100134.31;;;15.48;57.51
25658;BME280;13517;59.320;18.042;2022-07-15T10:03:03;100097.84;;;15.21;57.86
25658;BME280;13517;59.320;18.042;2022-07-15T10:05:29;100123.56;;;15.46;58.12
25658;BME280;13517;59.320;18.042;2022-07-15T10:08:00;100119.56;;;15.50;57.55
25658;BME280;13517;59.320;18.042;2022-07-15T10:10:27;100127.03;;;15.38;57.58
25658;BME280;13517;59.320;18.042;2022-07-15T10:15:53;100139.22;;;15.15;56.60
25658;BME280;13517;59.320;18.042;2022-07-15T10:21:11;100128.56;;;15.51;56.19
25658;BME280;13517;59.320;18.042;2022-07-15T10:23:42;100142.63;;;15.36;56.32
25658;BME280;13517;59.320;18.042;2022-07-15T10:26:36;100135.38;;;15.17;56.36
25658;BME280;13517;59.320;18.042;2022-07-15T10:29:06;100122.31;;;15.21;56.77
25658;BME280;13517;59.320;18.042;2022-07-15T10:31:34;100130.19;;;15.34;56.84
25658;BME280;13517;59.320;18.042;2022-07-15T10:39:15;100122.63;;;15.08;57.37
25658;BME280;13517;59.320;18.042;2022-07-15T10:42:01;100130.50;;;14.81;57.27
25658;BME280;13517;59.320;18.042;2022-07-15T10:44:34;100134.66;;;14.86;57.94
25658;BME280;13517;59.320;18.042;2022-07-15T10:47:29;100148.75;;;14.60;57.00
25658;BME280;13517;59.320;18.042;2022-07-15T10:49:55;100113.00;;;14.54;58.11
25658;BME280;13517;59.320;18.042;2022-07-15T10:52:26;100132.50;;;14.79;57.85
25658;BME280;13517;59.320;18.042;2022-07-15T10:57:20;100119.19;;;15.06;56.83
25658;BME280;13517;59.320;18.042;2022-07-15T10:59:49;100105.31;;;15.19;56.46
25658;BME280;13517;59.320;18.042;2022-07-15T11:02:16;100138.50;;;15.42;56.89
25658;BME280;13517;59.320;18.042;2022-07-15T11:04:42;100144.78;;;15.43;57.47
25658;BME280;13517;59.320;18.042;2022-07-15T11:15:05;100129.59;;;15.50;56.48
25658;BME280;13517;59.320;18.042;2022-07-15T11:20:03;100125.28;;;15.47;56.28
25658;BME280;13517;59.320;18.042;2022-07-15T11:22:31;100125.88;;;15.41;56.92
25658;BME280;13517;59.320;18.042;2022-07-15T11:24:56;100138.53;;;15.22;56.04
25658;BME280;13517;59.320;18.042;2022-07-15T11:27:24;100111.59;;;15.09;56.62
25658;BME280;13517;59.320;18.042;2022-07-15T11:29:52;100125.06;;;15.21;56.37
25658;BME280;13517;59.320;18.042;2022-07-15T11:32:19;100110.16;;;15.15;55.92
25658;BME280;13517;59.320;18.042;2022-07-15T11:34:48;100152.69;;;15.26;56.29
25658;BME280;13517;59.320;18.042;2022-07-15T11:37:14;100118.78;;;15.01;56.58
25658;BME280;13517;59.320;18.042;2022-07-15T11:39:45;100135.94;;;15.01;56.81
25658;BME280;13517;59.320;18.042;2022-07-15T11:42:18;100140.09;;;15.05;54.83
25658;BME280;13517;59.320;18.042;2022-07-15T11:45:03;100152.00;;;15.04;54.62
25658;BME280;13517;59.320;18.042;2022-07-15T11:47:28;100154.53;;;15.16;54.36
25658;BME280;13517;59.320;18.042;2022-07-15T11:49:59;100160.41;;;15.21;54.74
25658;BME280;13517;59.320;18.042;2022-07-15T11:52:25;100173.00;;;15.22;55.59
25658;BME280;13517;59.320;18.042;2022-07-15T11:54:50;100187.50;;;15.13;56.63
25658;BME280;13517;59.320;18.042;2022-07-15T11:57:16;100172.59;;;14.97;57.38
25658;BME280;13517;59.320;18.042;2022-07-15T11:59:52;100135.22;;;14.79;57.47
25658;BME280;13517;59.320;18.042;2022-07-15T12:02:18;100158.84;;;14.89;57.90
25658;BME280;13517;59.320;18.042;2022-07-15T12:04:43;100167.56;;;15.02;57.52
25658;BME280;13517;59.320;18.042;2022-07-15T12:07:09;100160.41;;;15.21;57.36
25658;BME280;13517;59.320;18.042;2022-07-15T12:09:39;100147.38;;;15.24;57.63
25658;BME280;13517;59.320;18.042;2022-07-15T12:12:05;100195.78;;;15.41;57.70
25658;BME280;13517;59.320;18.042;2022-07-15T12:14:30;100142.25;;;15.31;57.73
25658;BME280;13517;59.320;18.042;2022-07-15T12:16:56;100175.44;;;15.45;58.28
25658;BME280;13517;59.320;18.042;2022-07-15T12:19:24;100125.63;;;15.24;58.83
25658;BME280;13517;59.320;18.042;2022-07-15T12:21:52;100156.81;;;15.30;57.72
25658;BME280;13517;59.320;18.042;2022-07-15T12:24:21;100155.97;;;15.39;58.00
25658;BME280;13517;59.320;18.042;2022-07-15T12:29:16;100171.53;;;15.67;57.27
25658;BME280;13517;59.320;18.042;2022-07-15T12:31:42;100167.34;;;15.73;57.11
25658;BME280;13517;59.320;18.042;2022-07-15T12:34:09;100166.09;;;15.57;57.04
25658;BME280;13517;59.320;18.042;2022-07-15T12:36:35;100180.81;;;15.84;56.10
25658;BME280;13517;59.320;18.042;2022-07-15T12:39:14;100183.69;;;15.92;56.53
25658;BME280;13517;59.320;18.042;2022-07-15T12:41:42;100215.19;;;16.05;55.88
25658;BME280;13517;59.320;18.042;2022-07-15T12:44:08;100180.41;;;15.69;56.12
25658;BME280;13517;59.320;18.042;2022-07-15T12:46:55;100197.38;;;15.33;55.47
25658;BME280;13517;59.320;18.042;2022-07-15T12:49:49;100195.03;;;14.89;57.51
25658;BME280;13517;59.320;18.042;2022-07-15T12:52:28;100192.84;;;14.73;58.20
25658;BME280;13517;59.320;18.042;2022-07-15T12:54:55;100187.69;;;14.70;57.95
25658;BME280;13517;59.320;18.042;2022-07-15T12:57:30;100181.25;;;14.71;57.56
25658;BME280;13517;59.320;18.042;2022-07-15T13:02:29;100180.72;;;14.77;57.21
25658;BME280;13517;59.320;18.042;2022-07-15T13:04:55;100187.31;;;14.84;57.19
25658;BME280;13517;59.320;18.042;2022-07-15T13:07:20;100198.88;;;14.77;55.60
25658;BME280;13517;59.320;18.042;2022-07-15T13:09:46;100165.56;;;14.75;55.43
25658;BME280;13517;59.320;18.042;2022-07-15T13:12:12;100160.22;;;14.73;55.10
25658;BME280;13517;59.320;18.042;2022-07-15T13:14:39;100145.06;;;14.61;55.75
25658;BME280;13517;59.320;18.042;2022-07-15T13:17:05;100177.88;;;14.89;54.99